sensor_id;sensor_type;location;lat;lon;timestamp;P1;durP1;ratioP1;P2;durP2;ratioP2
9420;SDS011;4749;51.398;5.466;2023-02-26T00:01:36;8.40;;;3.57;;
9420;SDS011;4749;51.398;5.466;2023-02-26T00:04:04;7.60;;;3.33;;
9420;SDS011;4749;51.398;5.466;2023-02-26T00:06:34;12.80;;;4.03;;
9420;SDS011;4749;51.398;5.466;2023-02-26T00:09:04;11.30;;;4.37;;
9420;SDS011;4749;51.398;5.466;2023-02-26T00:11:32;6.50;;;2.80;;
9420;SDS011;4749;51.398;5.466;2023-02-26T00:13:59;7.60;;;2.90;;
9420;SDS011;4749;51.398;5.466;2023-02-26T00:16:31;11.77;;;3.57;;
9420;SDS011;4749;51.398;5.466;2023-02-26T00:19:04;9.10;;;3.03;;
9420;SDS011;4749;51.398;5.466;2023-02-26T00:21:33;9.27;;;3.30;;
9420;SDS011;4749;51.398;5.466;2023-02-26T00:24:02;12.90;;;3.70;;
9420;SDS011;4749;51.398;5.466;2023-02-26T00:26:32;8.27;;;2.87;;
9420;SDS011;4749;51.398;5.466;2023-02-26T00:29:00;10.07;;;3.57;;
9420;SDS011;4749;51.398;5.466;2023-02-26T00:31:29;7.70;;;3.63;;
9420;SDS011;4749;51.398;5.466;2023-02-26T00:33:56;7.90;;;2.80;;
9420;SDS011;4749;51.398;5.466;2023-02-26T00:41:47;9.20;;;3.40;;
9420;SDS011;4749;51.398;5.466;2023-02-26T00:44:14;5.67;;;3.03;;
9420;SDS011;4749;51.398;5.466;2023-02-26T00:46:48;8.07;;;3.63;;
9420;SDS011;4749;51.398;5.466;2023-02-26T00:49:52;5.80;;;3.10;;
9420;SDS011;4749;51.398;5.466;2023-02-26T00:55:20;5.20;;;3.10;;
9420;SDS011;4749;51.398;5.466;2023-02-26T00:57:47;7.87;;;3.57;;
9420;SDS011;4749;51.398;5.466;2023-02-26T01:00:15;7.87;;;3.70;;
9420;SDS011;4749;51.398;5.466;2023-02-26T01:02:43;8.63;;;3.43;;
9420;SDS011;4749;51.398;5.466;2023-02-26T01:05:11;8.17;;;3.50;;
9420;SDS011;4749;51.398;5.466;2023-02-26T01:07:46;9.87;;;3.50;;
9420;SDS011;4749;51.398;5.466;2023-02-26T01:10:32;8.80;;;3.30;;
9420;SDS011;4749;51.398;5.466;2023-02-26T01:12:59;7.43;;;3.37;;
9420;SDS011;4749;51.398;5.466;2023-02-26T01:15:27;7.03;;;3.43;;
9420;SDS011;4749;51.398;5.466;2023-02-26T01:17:59;7.10;;;2.97;;
9420;SDS011;4749;51.398;5.466;2023-02-26T01:20:39;6.43;;;2.90;;
9420;SDS011;4749;51.398;5.466;2023-02-26T01:23:15;7.00;;;3.50;;
9420;SDS011;4749;51.398;5.466;2023-02-26T01:25:52;7.47;;;3.70;;
9420;SDS011;4749;51.398;5.466;2023-02-26T01:28:47;11.67;;;3.77;;
9420;SDS011;4749;51.398;5.466;2023-02-26T01:34:34;8.73;;;3.30;;
9420;SDS011;4749;51.398;5.466;2023-02-26T01:37:21;6.10;;;3.10;;
9420;SDS011;4749;51.398;5.466;2023-02-26T01:42:33;6.03;;;2.97;;
9420;SDS011;4749;51.398;5.466;2023-02-26T01:45:15;9.10;;;3.00;;
9420;SDS011;4749;51.398;5.466;2023-02-26T01:47:58;6.80;;;2.70;;
9420;SDS011;4749;51.398;5.466;2023-02-26T01:50:37;8.90;;;2.80;;
9420;SDS011;4749;51.398;5.466;2023-02-26T01:53:18;9.70;;;2.70;;
9420;SDS011;4749;51.398;5.466;2023-02-26T01:55:55;11.37;;;3.07;;
9420;SDS011;4749;51.398;5.466;2023-02-26T01:58:26;6.63;;;2.17;;
9420;SDS011;4749;51.398;5.466;2023-02-26T02:00:57;6.50;;;2.47;;
9420;SDS011;4749;51.398;5.466;2023-02-26T02:03:25;7.63;;;3.00;;
9420;SDS011;4749;51.398;5.466;2023-02-26T02:06:17;6.77;;;2.60;;
9420;SDS011;4749;51.398;5.466;2023-02-26T02:08:46;6.20;;;2.57;;
9420;SDS011;4749;51.398;5.466;2023-02-26T02:11:14;7.37;;;2.80;;
9420;SDS011;4749;51.398;5.466;2023-02-26T02:14:03;7.97;;;2.57;;
9420;SDS011;4749;51.398;5.466;2023-02-26T02:17:07;7.03;;;2.80;;
9420;SDS011;4749;51.398;5.466;2023-02-26T02:23:00;5.13;;;2.60;;
9420;SDS011;4749;51.398;5.466;2023-02-26T02:25:50;5.53;;;2.50;;
9420;SDS011;4749;51.398;5.466;2023-02-26T02:31:15;6.87;;;2.60;;
9420;SDS011;4749;51.398;5.466;2023-02-26T02:33:51;5.90;;;2.23;;
9420;SDS011;4749;51.398;5.466;2023-02-26T02:36:48;7.10;;;2.47;;
9420;SDS011;4749;51.398;5.466;2023-02-26T02:39:39;5.43;;;1.97;;
9420;SDS011;4749;51.398;5.466;2023-02-26T02:42:29;5.47;;;2.10;;
9420;SDS011;4749;51.398;5.466;2023-02-26T02:45:17;5.10;;;2.33;;
9420;SDS011;4749;51.398;5.466;2023-02-26T02:47:55;5.63;;;2.33;;
9420;SDS011;4749;51.398;5.466;2023-02-26T02:50:41;4.93;;;1.90;;
9420;SDS011;4749;51.398;5.466;2023-02-26T02:53:20;4.53;;;1.80;;
9420;SDS011;4749;51.398;5.466;2023-02-26T02:56:02;8.60;;;2.30;;
9420;SDS011;4749;51.398;5.466;2023-02-26T02:58:46;5.97;;;2.60;;
9420;SDS011;4749;51.398;5.466;2023-02-26T03:01:36;4.47;;;1.83;;
9420;SDS011;4749;51.398;5.466;2023-02-26T03:04:13;4.33;;;2.10;;
9420;SDS011;4749;51.398;5.466;2023-02-26T03:06:42;5.57;;;1.87;;
9420;SDS011;4749;51.398;5.466;2023-02-26T03:09:12;5.90;;;2.23;;
9420;SDS011;4749;51.398;5.466;2023-02-26T03:11:39;6.13;;;1.83;;
9420;SDS011;4749;51.398;5.466;2023-02-26T03:14:07;4.77;;;1.80;;
9420;SDS011;4749;51.398;5.466;2023-02-26T03:22:35;4.40;;;1.67;;
9420;SDS011;4749;51.398;5.466;2023-02-26T03:25:24;3.83;;;1.80;;
9420;SDS011;4749;51.398;5.466;2023-02-26T03:31:04;3.17;;;1.40;;
9420;SDS011;4749;51.398;5.466;2023-02-26T03:33:52;4.20;;;1.70;;
9420;SDS011;4749;51.398;5.466;2023-02-26T03:36:31;3.90;;;1.33;;
9420;SDS011;4749;51.398;5.466;2023-02-26T03:39:15;5.70;;;1.57;;
9420;SDS011;4749;51.398;5.466;2023-02-26T03:41:48;1.83;;;1.30;;
9420;SDS011;4749;51.398;5.466;2023-02-26T03:44:32;3.83;;;1.47;;
9420;SDS011;4749;51.398;5.466;2023-02-26T03:47:07;5.77;;;1.30;;
9420;SDS011;4749;51.398;5.466;2023-02-26T03:49:40;5.67;;;1.50;;
9420;SDS011;4749;51.398;5.466;2023-02-26T03:52:27;4.23;;;1.60;;
9420;SDS011;4749;51.398;5.466;2023-02-26T03:55:01;6.07;;;1.37;;
9420;SDS011;4749;51.398;5.466;2023-02-26T03:58:01;4.03;;;1.40;;
9420;SDS011;4749;51.398;5.466;2023-02-26T04:00:28;4.37;;;1.50;;
9420;SDS011;4749;51.398;5.466;2023-02-26T04:05:38;4.00;;;1.70;;
9420;SDS011;4749;51.398;5.466;2023-02-26T04:08:11;5.67;;;1.40;;
9420;SDS011;4749;51.398;5.466;2023-02-26T04:13:11;5.13;;;1.90;;
9420;SDS011;4749;51.398;5.466;2023-02-26T04:15:38;4.23;;;1.53;;
9420;SDS011;4749;51.398;5.466;2023-02-26T04:18:05;7.40;;;1.70;;
9420;SDS011;4749;51.398;5.466;2023-02-26T04:20:32;6.83;;;1.53;;
9420;SDS011;4749;51.398;5.466;2023-02-26T04:23:00;5.70;;;1.70;;
9420;SDS011;4749;51.398;5.466;2023-02-26T04:25:27;3.07;;;1.43;;
9420;SDS011;4749;51.398;5.466;2023-02-26T04:27:55;6.50;;;1.27;;
9420;SDS011;4749;51.398;5.466;2023-02-26T04:30:22;4.97;;;1.30;;
9420;SDS011;4749;51.398;5.466;2023-02-26T04:32:49;5.93;;;1.60;;
9420;SDS011;4749;51.398;5.466;2023-02-26T04:35:17;3.33;;;1.50;;
9420;SDS011;4749;51.398;5.466;2023-02-26T04:37:44;4.20;;;1.40;;
9420;SDS011;4749;51.398;5.466;2023-02-26T04:40:12;5.20;;;1.50;;
9420;SDS011;4749;51.398;5.466;2023-02-26T04:42:39;4.37;;;1.43;;
9420;SDS011;4749;51.398;5.466;2023-02-26T04:45:07;3.70;;;1.63;;
9420;SDS011;4749;51.398;5.466;2023-02-26T04:47:34;4.77;;;1.80;;
9420;SDS011;4749;51.398;5.466;2023-02-26T04:50:02;4.83;;;1.90;;
9420;SDS011;4749;51.398;5.466;2023-02-26T04:52:30;5.30;;;1.50;;
9420;SDS011;4749;51.398;5.466;2023-02-26T04:54:57;5.43;;;1.30;;
9420;SDS011;4749;51.398;5.466;2023-02-26T04:57:24;4.80;;;1.40;;
9420;SDS011;4749;51.398;5.466;2023-02-26T04:59:51;5.43;;;1.63;;
9420;SDS011;4749;51.398;5.466;2023-02-26T05:02:18;4.27;;;1.40;;
9420;SDS011;4749;51.398;5.466;2023-02-26T05:04:46;6.90;;;1.73;;
9420;SDS011;4749;51.398;5.466;2023-02-26T05:07:13;3.77;;;1.30;;
9420;SDS011;4749;51.398;5.466;2023-02-26T05:09:40;3.43;;;1.27;;
9420;SDS011;4749;51.398;5.466;2023-02-26T05:12:07;7.00;;;1.83;;
9420;SDS011;4749;51.398;5.466;2023-02-26T05:14:34;6.40;;;2.00;;
9420;SDS011;4749;51.398;5.466;2023-02-26T05:17:02;6.10;;;1.43;;
9420;SDS011;4749;51.398;5.466;2023-02-26T05:19:29;2.77;;;1.40;;
9420;SDS011;4749;51.398;5.466;2023-02-26T05:21:56;6.43;;;1.90;;
9420;SDS011;4749;51.398;5.466;2023-02-26T05:24:23;2.83;;;1.47;;
9420;SDS011;4749;51.398;5.466;2023-02-26T05:26:50;4.73;;;1.30;;
9420;SDS011;4749;51.398;5.466;2023-02-26T05:29:17;8.10;;;1.37;;
9420;SDS011;4749;51.398;5.466;2023-02-26T05:31:44;3.70;;;1.17;;
9420;SDS011;4749;51.398;5.466;2023-02-26T05:34:12;5.13;;;1.20;;
9420;SDS011;4749;51.398;5.466;2023-02-26T05:36:39;5.03;;;1.33;;
9420;SDS011;4749;51.398;5.466;2023-02-26T05:39:07;6.33;;;1.57;;
9420;SDS011;4749;51.398;5.466;2023-02-26T05:41:35;3.23;;;1.27;;
9420;SDS011;4749;51.398;5.466;2023-02-26T05:44:02;4.23;;;1.37;;
9420;SDS011;4749;51.398;5.466;2023-02-26T05:46:30;4.20;;;1.33;;
9420;SDS011;4749;51.398;5.466;2023-02-26T05:48:57;6.03;;;1.33;;
9420;SDS011;4749;51.398;5.466;2023-02-26T05:51:24;7.43;;;1.63;;
9420;SDS011;4749;51.398;5.466;2023-02-26T05:53:52;4.50;;;1.60;;
9420;SDS011;4749;51.398;5.466;2023-02-26T05:56:19;3.80;;;1.23;;
9420;SDS011;4749;51.398;5.466;2023-02-26T05:58:46;7.37;;;1.53;;
9420;SDS011;4749;51.398;5.466;2023-02-26T06:01:14;6.87;;;1.40;;
9420;SDS011;4749;51.398;5.466;2023-02-26T06:03:41;3.03;;;1.03;;
9420;SDS011;4749;51.398;5.466;2023-02-26T06:06:10;6.07;;;1.43;;
9420;SDS011;4749;51.398;5.466;2023-02-26T06:08:41;2.73;;;1.10;;
9420;SDS011;4749;51.398;5.466;2023-02-26T06:11:09;6.73;;;1.40;;
9420;SDS011;4749;51.398;5.466;2023-02-26T06:13:36;4.20;;;1.13;;
9420;SDS011;4749;51.398;5.466;2023-02-26T06:16:03;6.37;;;1.50;;
9420;SDS011;4749;51.398;5.466;2023-02-26T06:18:31;3.30;;;1.40;;
9420;SDS011;4749;51.398;5.466;2023-02-26T06:20:59;4.03;;;1.33;;
9420;SDS011;4749;51.398;5.466;2023-02-26T06:23:27;3.97;;;1.23;;
9420;SDS011;4749;51.398;5.466;2023-02-26T06:25:54;3.30;;;1.00;;
9420;SDS011;4749;51.398;5.466;2023-02-26T06:28:22;3.67;;;1.17;;
9420;SDS011;4749;51.398;5.466;2023-02-26T06:30:50;4.50;;;1.30;;
9420;SDS011;4749;51.398;5.466;2023-02-26T06:33:18;5.97;;;1.37;;
9420;SDS011;4749;51.398;5.466;2023-02-26T06:35:46;3.73;;;1.00;;
9420;SDS011;4749;51.398;5.466;2023-02-26T06:38:14;3.10;;;0.87;;
9420;SDS011;4749;51.398;5.466;2023-02-26T06:40:42;4.97;;;1.20;;
9420;SDS011;4749;51.398;5.466;2023-02-26T06:43:10;6.10;;;1.20;;
9420;SDS011;4749;51.398;5.466;2023-02-26T06:45:37;5.37;;;1.13;;
9420;SDS011;4749;51.398;5.466;2023-02-26T06:48:04;2.07;;;0.93;;
9420;SDS011;4749;51.398;5.466;2023-02-26T06:50:32;6.20;;;1.43;;
9420;SDS011;4749;51.398;5.466;2023-02-26T06:52:59;5.07;;;1.10;;
9420;SDS011;4749;51.398;5.466;2023-02-26T06:55:26;4.87;;;1.30;;
9420;SDS011;4749;51.398;5.466;2023-02-26T06:57:53;5.77;;;1.20;;
9420;SDS011;4749;51.398;5.466;2023-02-26T07:00:23;3.63;;;1.20;;
9420;SDS011;4749;51.398;5.466;2023-02-26T07:02:51;2.83;;;1.13;;
9420;SDS011;4749;51.398;5.466;2023-02-26T07:05:19;3.27;;;1.10;;
9420;SDS011;4749;51.398;5.466;2023-02-26T07:07:46;2.70;;;1.03;;
9420;SDS011;4749;51.398;5.466;2023-02-26T07:10:13;5.13;;;1.57;;
9420;SDS011;4749;51.398;5.466;2023-02-26T07:12:41;4.73;;;1.10;;
9420;SDS011;4749;51.398;5.466;2023-02-26T07:15:08;6.97;;;1.50;;
9420;SDS011;4749;51.398;5.466;2023-02-26T07:17:35;5.77;;;1.10;;
9420;SDS011;4749;51.398;5.466;2023-02-26T07:20:03;2.93;;;1.10;;
9420;SDS011;4749;51.398;5.466;2023-02-26T07:22:38;6.20;;;1.40;;
9420;SDS011;4749;51.398;5.466;2023-02-26T07:25:06;8.13;;;1.57;;
9420;SDS011;4749;51.398;5.466;2023-02-26T07:27:34;3.27;;;1.10;;
9420;SDS011;4749;51.398;5.466;2023-02-26T07:30:01;2.60;;;1.10;;
9420;SDS011;4749;51.398;5.466;2023-02-26T07:32:30;5.93;;;1.63;;
9420;SDS011;4749;51.398;5.466;2023-02-26T07:34:58;2.47;;;1.20;;
9420;SDS011;4749;51.398;5.466;2023-02-26T07:37:25;3.57;;;1.20;;
9420;SDS011;4749;51.398;5.466;2023-02-26T07:39:54;6.30;;;1.20;;
9420;SDS011;4749;51.398;5.466;2023-02-26T07:42:21;3.50;;;1.03;;
9420;SDS011;4749;51.398;5.466;2023-02-26T07:44:49;5.80;;;1.43;;
9420;SDS011;4749;51.398;5.466;2023-02-26T07:47:16;4.73;;;1.40;;
9420;SDS011;4749;51.398;5.466;2023-02-26T07:49:43;4.40;;;1.20;;
9420;SDS011;4749;51.398;5.466;2023-02-26T07:52:10;3.83;;;1.10;;
9420;SDS011;4749;51.398;5.466;2023-02-26T07:54:38;5.27;;;1.40;;
9420;SDS011;4749;51.398;5.466;2023-02-26T07:57:05;2.93;;;1.00;;
9420;SDS011;4749;51.398;5.466;2023-02-26T07:59:32;6.60;;;1.03;;
9420;SDS011;4749;51.398;5.466;2023-02-26T08:02:00;3.77;;;1.17;;
9420;SDS011;4749;51.398;5.466;2023-02-26T08:04:27;3.07;;;1.33;;
9420;SDS011;4749;51.398;5.466;2023-02-26T08:06:55;3.23;;;1.03;;
9420;SDS011;4749;51.398;5.466;2023-02-26T08:09:23;4.23;;;1.27;;
9420;SDS011;4749;51.398;5.466;2023-02-26T08:11:51;3.80;;;1.00;;
9420;SDS011;4749;51.398;5.466;2023-02-26T08:14:18;4.57;;;1.07;;
9420;SDS011;4749;51.398;5.466;2023-02-26T08:16:45;5.03;;;1.00;;
9420;SDS011;4749;51.398;5.466;2023-02-26T08:19:12;3.93;;;1.20;;
9420;SDS011;4749;51.398;5.466;2023-02-26T08:21:40;5.43;;;0.90;;
9420;SDS011;4749;51.398;5.466;2023-02-26T08:24:09;3.60;;;0.93;;
9420;SDS011;4749;51.398;5.466;2023-02-26T08:26:37;3.50;;;0.83;;
9420;SDS011;4749;51.398;5.466;2023-02-26T08:29:05;3.73;;;1.00;;
9420;SDS011;4749;51.398;5.466;2023-02-26T08:31:32;3.73;;;1.30;;
9420;SDS011;4749;51.398;5.466;2023-02-26T08:34:00;2.73;;;1.10;;
9420;SDS011;4749;51.398;5.466;2023-02-26T08:36:28;5.53;;;1.50;;
9420;SDS011;4749;51.398;5.466;2023-02-26T08:38:57;5.80;;;1.00;;
9420;SDS011;4749;51.398;5.466;2023-02-26T08:41:24;5.53;;;1.20;;
9420;SDS011;4749;51.398;5.466;2023-02-26T08:43:55;3.30;;;1.07;;
9420;SDS011;4749;51.398;5.466;2023-02-26T08:46:22;3.43;;;1.00;;
9420;SDS011;4749;51.398;5.466;2023-02-26T08:48:50;2.43;;;1.03;;
9420;SDS011;4749;51.398;5.466;2023-02-26T08:51:18;4.53;;;1.20;;
9420;SDS011;4749;51.398;5.466;2023-02-26T08:53:47;3.03;;;0.93;;
9420;SDS011;4749;51.398;5.466;2023-02-26T08:56:15;4.37;;;1.07;;
9420;SDS011;4749;51.398;5.466;2023-02-26T08:58:43;3.53;;;0.90;;
9420;SDS011;4749;51.398;5.466;2023-02-26T09:01:10;4.53;;;1.00;;
9420;SDS011;4749;51.398;5.466;2023-02-26T09:03:38;5.37;;;1.03;;
9420;SDS011;4749;51.398;5.466;2023-02-26T09:06:05;1.90;;;0.70;;
9420;SDS011;4749;51.398;5.466;2023-02-26T09:08:32;2.73;;;1.00;;
9420;SDS011;4749;51.398;5.466;2023-02-26T09:11:00;3.73;;;1.10;;
9420;SDS011;4749;51.398;5.466;2023-02-26T09:13:29;2.37;;;0.80;;
9420;SDS011;4749;51.398;5.466;2023-02-26T09:15:56;1.93;;;0.77;;
9420;SDS011;4749;51.398;5.466;2023-02-26T09:18:24;2.13;;;0.83;;
9420;SDS011;4749;51.398;5.466;2023-02-26T09:20:51;2.60;;;0.90;;
9420;SDS011;4749;51.398;5.466;2023-02-26T09:23:19;3.43;;;0.80;;
9420;SDS011;4749;51.398;5.466;2023-02-26T09:25:50;3.43;;;0.90;;
9420;SDS011;4749;51.398;5.466;2023-02-26T09:28:20;2.83;;;1.10;;
9420;SDS011;4749;51.398;5.466;2023-02-26T09:30:52;2.00;;;0.80;;
9420;SDS011;4749;51.398;5.466;2023-02-26T09:33:21;2.43;;;0.90;;
9420;SDS011;4749;51.398;5.466;2023-02-26T09:35:49;2.30;;;0.80;;
9420;SDS011;4749;51.398;5.466;2023-02-26T09:38:18;4.87;;;0.97;;
9420;SDS011;4749;51.398;5.466;2023-02-26T09:52:17;3.53;;;0.70;;
9420;SDS011;4749;51.398;5.466;2023-02-26T09:55:10;1.73;;;0.77;;
9420;SDS011;4749;51.398;5.466;2023-02-26T09:57:57;3.13;;;0.90;;
9420;SDS011;4749;51.398;5.466;2023-02-26T10:00:47;3.27;;;1.13;;
9420;SDS011;4749;51.398;5.466;2023-02-26T10:12:47;3.00;;;0.70;;
9420;SDS011;4749;51.398;5.466;2023-02-26T10:15:21;2.83;;;0.97;;
9420;SDS011;4749;51.398;5.466;2023-02-26T10:18:12;1.23;;;0.70;;
9420;SDS011;4749;51.398;5.466;2023-02-26T10:23:42;2.93;;;0.97;;
9420;SDS011;4749;51.398;5.466;2023-02-26T10:26:36;3.20;;;0.70;;
9420;SDS011;4749;51.398;5.466;2023-02-26T10:35:19;1.13;;;0.50;;
9420;SDS011;4749;51.398;5.466;2023-02-26T10:37:56;1.37;;;0.60;;
9420;SDS011;4749;51.398;5.466;2023-02-26T10:40:37;2.23;;;0.60;;
9420;SDS011;4749;51.398;5.466;2023-02-26T10:43:11;2.37;;;0.80;;
9420;SDS011;4749;51.398;5.466;2023-02-26T10:51:27;3.03;;;0.70;;
9420;SDS011;4749;51.398;5.466;2023-02-26T10:54:05;3.23;;;0.90;;
9420;SDS011;4749;51.398;5.466;2023-02-26T10:57:01;4.63;;;1.00;;
9420;SDS011;4749;51.398;5.466;2023-02-26T10:59:29;3.33;;;0.90;;
9420;SDS011;4749;51.398;5.466;2023-02-26T11:01:57;2.40;;;0.77;;
9420;SDS011;4749;51.398;5.466;2023-02-26T11:04:25;2.93;;;0.80;;
9420;SDS011;4749;51.398;5.466;2023-02-26T11:06:57;1.87;;;0.70;;
9420;SDS011;4749;51.398;5.466;2023-02-26T11:09:30;5.13;;;0.70;;
9420;SDS011;4749;51.398;5.466;2023-02-26T11:12:05;2.87;;;0.80;;
9420;SDS011;4749;51.398;5.466;2023-02-26T11:14:44;1.70;;;0.70;;
9420;SDS011;4749;51.398;5.466;2023-02-26T11:17:24;4.70;;;0.80;;
9420;SDS011;4749;51.398;5.466;2023-02-26T11:19:58;3.17;;;1.27;;
9420;SDS011;4749;51.398;5.466;2023-02-26T11:22:51;3.23;;;0.70;;
9420;SDS011;4749;51.398;5.466;2023-02-26T11:25:25;2.43;;;0.87;;
9420;SDS011;4749;51.398;5.466;2023-02-26T11:28:03;3.57;;;0.80;;
9420;SDS011;4749;51.398;5.466;2023-02-26T11:30:49;1.70;;;0.70;;
9420;SDS011;4749;51.398;5.466;2023-02-26T11:33:26;1.97;;;0.80;;
9420;SDS011;4749;51.398;5.466;2023-02-26T11:36:01;2.00;;;0.70;;
9420;SDS011;4749;51.398;5.466;2023-02-26T11:38:35;1.47;;;0.73;;
9420;SDS011;4749;51.398;5.466;2023-02-26T11:41:03;1.33;;;0.80;;
9420;SDS011;4749;51.398;5.466;2023-02-26T11:44:14;3.67;;;0.87;;
9420;SDS011;4749;51.398;5.466;2023-02-26T11:46:36;2.90;;;0.67;;
9420;SDS011;4749;51.398;5.466;2023-02-26T11:49:22;1.77;;;0.60;;
9420;SDS011;4749;51.398;5.466;2023-02-26T11:55:01;1.83;;;0.63;;
9420;SDS011;4749;51.398;5.466;2023-02-26T11:57:42;1.80;;;0.60;;
9420;SDS011;4749;51.398;5.466;2023-02-26T12:00:17;3.10;;;0.70;;
9420;SDS011;4749;51.398;5.466;2023-02-26T12:02:50;1.47;;;0.53;;
9420;SDS011;4749;51.398;5.466;2023-02-26T12:05:22;1.30;;;0.60;;
9420;SDS011;4749;51.398;5.466;2023-02-26T12:07:49;1.73;;;0.60;;
9420;SDS011;4749;51.398;5.466;2023-02-26T12:10:18;1.03;;;0.50;;
9420;SDS011;4749;51.398;5.466;2023-02-26T12:13:07;3.50;;;0.90;;
9420;SDS011;4749;51.398;5.466;2023-02-26T12:19:05;1.33;;;0.53;;
9420;SDS011;4749;51.398;5.466;2023-02-26T12:24:43;2.07;;;0.67;;
9420;SDS011;4749;51.398;5.466;2023-02-26T12:27:34;0.67;;;0.53;;
9420;SDS011;4749;51.398;5.466;2023-02-26T12:45:05;2.90;;;0.97;;
9420;SDS011;4749;51.398;5.466;2023-02-26T13:05:31;1.87;;;0.80;;
9420;SDS011;4749;51.398;5.466;2023-02-26T13:08:14;1.97;;;0.80;;
9420;SDS011;4749;51.398;5.466;2023-02-26T13:22:20;2.27;;;1.20;;
9420;SDS011;4749;51.398;5.466;2023-02-26T13:27:37;2.43;;;0.70;;
9420;SDS011;4749;51.398;5.466;2023-02-26T13:32:58;1.57;;;0.60;;
9420;SDS011;4749;51.398;5.466;2023-02-26T13:38:16;2.63;;;0.70;;
9420;SDS011;4749;51.398;5.466;2023-02-26T13:49:17;2.47;;;0.60;;
9420;SDS011;4749;51.398;5.466;2023-02-26T13:52:00;1.67;;;0.60;;
9420;SDS011;4749;51.398;5.466;2023-02-26T13:54:44;1.30;;;0.67;;
9420;SDS011;4749;51.398;5.466;2023-02-26T13:57:21;1.37;;;0.60;;
9420;SDS011;4749;51.398;5.466;2023-02-26T14:00:07;1.20;;;0.70;;
9420;SDS011;4749;51.398;5.466;2023-02-26T14:14:06;2.80;;;1.20;;
9420;SDS011;4749;51.398;5.466;2023-02-26T14:16:48;2.60;;;1.20;;
9420;SDS011;4749;51.398;5.466;2023-02-26T14:19:37;1.17;;;0.70;;
9420;SDS011;4749;51.398;5.466;2023-02-26T14:22:33;3.03;;;0.90;;
9420;SDS011;4749;51.398;5.466;2023-02-26T14:31:07;3.17;;;0.80;;
9420;SDS011;4749;51.398;5.466;2023-02-26T14:39:39;1.50;;;0.57;;
9420;SDS011;4749;51.398;5.466;2023-02-26T14:42:17;1.17;;;0.70;;
9420;SDS011;4749;51.398;5.466;2023-02-26T14:45:00;1.90;;;0.90;;
9420;SDS011;4749;51.398;5.466;2023-02-26T14:47:58;2.20;;;0.80;;
9420;SDS011;4749;51.398;5.466;2023-02-26T14:50:33;1.53;;;0.60;;
9420;SDS011;4749;51.398;5.466;2023-02-26T14:56:05;2.00;;;0.77;;
9420;SDS011;4749;51.398;5.466;2023-02-26T15:11:10;1.80;;;0.87;;
9420;SDS011;4749;51.398;5.466;2023-02-26T15:20:41;2.60;;;0.80;;
9420;SDS011;4749;51.398;5.466;2023-02-26T15:26:03;1.63;;;1.03;;
9420;SDS011;4749;51.398;5.466;2023-02-26T15:28:33;2.03;;;1.13;;
9420;SDS011;4749;51.398;5.466;2023-02-26T15:31:07;1.63;;;0.90;;
9420;SDS011;4749;51.398;5.466;2023-02-26T15:33:39;3.47;;;0.70;;
9420;SDS011;4749;51.398;5.466;2023-02-26T15:36:10;4.30;;;0.70;;
9420;SDS011;4749;51.398;5.466;2023-02-26T15:38:45;2.97;;;0.90;;
9420;SDS011;4749;51.398;5.466;2023-02-26T15:41:15;2.87;;;0.90;;
9420;SDS011;4749;51.398;5.466;2023-02-26T15:43:49;1.47;;;0.80;;
9420;SDS011;4749;51.398;5.466;2023-02-26T15:46:26;2.43;;;0.73;;
9420;SDS011;4749;51.398;5.466;2023-02-26T15:49:01;1.50;;;0.63;;
9420;SDS011;4749;51.398;5.466;2023-02-26T15:51:34;2.00;;;0.70;;
9420;SDS011;4749;51.398;5.466;2023-02-26T15:54:01;1.50;;;0.80;;
9420;SDS011;4749;51.398;5.466;2023-02-26T15:56:34;2.40;;;0.90;;
9420;SDS011;4749;51.398;5.466;2023-02-26T15:59:17;1.33;;;0.70;;
9420;SDS011;4749;51.398;5.466;2023-02-26T16:01:53;1.37;;;0.80;;
9420;SDS011;4749;51.398;5.466;2023-02-26T16:04:21;2.13;;;0.80;;
9420;SDS011;4749;51.398;5.466;2023-02-26T16:06:53;1.47;;;0.77;;
9420;SDS011;4749;51.398;5.466;2023-02-26T16:09:34;2.20;;;0.80;;
9420;SDS011;4749;51.398;5.466;2023-02-26T16:12:09;1.73;;;0.80;;
9420;SDS011;4749;51.398;5.466;2023-02-26T16:14:47;1.20;;;0.80;;
9420;SDS011;4749;51.398;5.466;2023-02-26T16:17:26;1.47;;;0.80;;
9420;SDS011;4749;51.398;5.466;2023-02-26T16:19:59;4.40;;;1.40;;
9420;SDS011;4749;51.398;5.466;2023-02-26T16:25:22;2.57;;;2.00;;
9420;SDS011;4749;51.398;5.466;2023-02-26T16:28:19;5.40;;;1.53;;
9420;SDS011;4749;51.398;5.466;2023-02-26T16:30:53;1.73;;;1.40;;
9420;SDS011;4749;51.398;5.466;2023-02-26T16:33:23;2.10;;;1.30;;
9420;SDS011;4749;51.398;5.466;2023-02-26T16:36:02;3.37;;;1.60;;
9420;SDS011;4749;51.398;5.466;2023-02-26T16:38:45;2.10;;;1.20;;
9420;SDS011;4749;51.398;5.466;2023-02-26T16:41:15;2.23;;;1.13;;
9420;SDS011;4749;51.398;5.466;2023-02-26T16:43:54;2.93;;;0.83;;
9420;SDS011;4749;51.398;5.466;2023-02-26T16:49:04;2.70;;;1.20;;
9420;SDS011;4749;51.398;5.466;2023-02-26T16:51:42;3.47;;;1.10;;
9420;SDS011;4749;51.398;5.466;2023-02-26T16:54:14;1.50;;;0.90;;
9420;SDS011;4749;51.398;5.466;2023-02-26T16:57:37;2.13;;;1.00;;
9420;SDS011;4749;51.398;5.466;2023-02-26T17:00:04;1.70;;;1.13;;
9420;SDS011;4749;51.398;5.466;2023-02-26T17:02:44;2.20;;;1.20;;
9420;SDS011;4749;51.398;5.466;2023-02-26T17:05:22;2.47;;;1.17;;
9420;SDS011;4749;51.398;5.466;2023-02-26T17:07:55;2.50;;;1.20;;
9420;SDS011;4749;51.398;5.466;2023-02-26T17:10:38;2.93;;;1.90;;
9420;SDS011;4749;51.398;5.466;2023-02-26T17:13:15;3.83;;;1.93;;
9420;SDS011;4749;51.398;5.466;2023-02-26T17:15:46;3.30;;;1.40;;
9420;SDS011;4749;51.398;5.466;2023-02-26T17:18:14;4.33;;;1.70;;
9420;SDS011;4749;51.398;5.466;2023-02-26T17:20:42;3.37;;;1.50;;
9420;SDS011;4749;51.398;5.466;2023-02-26T17:23:12;4.43;;;2.10;;
9420;SDS011;4749;51.398;5.466;2023-02-26T17:25:43;2.73;;;1.53;;
9420;SDS011;4749;51.398;5.466;2023-02-26T17:28:20;9.00;;;3.00;;
9420;SDS011;4749;51.398;5.466;2023-02-26T17:30:52;2.80;;;1.30;;
9420;SDS011;4749;51.398;5.466;2023-02-26T17:33:22;3.67;;;1.60;;
9420;SDS011;4749;51.398;5.466;2023-02-26T17:35:49;3.07;;;1.40;;
9420;SDS011;4749;51.398;5.466;2023-02-26T17:38:18;22.87;;;13.10;;
9420;SDS011;4749;51.398;5.466;2023-02-26T17:40:45;21.03;;;9.50;;
9420;SDS011;4749;51.398;5.466;2023-02-26T17:43:13;11.13;;;5.20;;
9420;SDS011;4749;51.398;5.466;2023-02-26T17:45:40;10.93;;;4.13;;
9420;SDS011;4749;51.398;5.466;2023-02-26T17:48:09;9.53;;;3.90;;
9420;SDS011;4749;51.398;5.466;2023-02-26T17:50:43;8.93;;;4.33;;
9420;SDS011;4749;51.398;5.466;2023-02-26T17:53:20;5.27;;;2.67;;
9420;SDS011;4749;51.398;5.466;2023-02-26T17:55:53;6.07;;;3.17;;
9420;SDS011;4749;51.398;5.466;2023-02-26T18:00:57;9.77;;;4.50;;
9420;SDS011;4749;51.398;5.466;2023-02-26T18:03:25;7.40;;;3.03;;
9420;SDS011;4749;51.398;5.466;2023-02-26T18:05:55;7.40;;;3.07;;
9420;SDS011;4749;51.398;5.466;2023-02-26T18:08:26;6.67;;;2.83;;
9420;SDS011;4749;51.398;5.466;2023-02-26T18:11:15;7.53;;;3.87;;
9420;SDS011;4749;51.398;5.466;2023-02-26T18:13:45;4.77;;;2.43;;
9420;SDS011;4749;51.398;5.466;2023-02-26T18:16:19;6.17;;;2.70;;
9420;SDS011;4749;51.398;5.466;2023-02-26T18:19:05;6.23;;;3.10;;
9420;SDS011;4749;51.398;5.466;2023-02-26T18:21:41;7.73;;;3.17;;
9420;SDS011;4749;51.398;5.466;2023-02-26T18:24:33;5.00;;;3.20;;
9420;SDS011;4749;51.398;5.466;2023-02-26T18:27:02;3.97;;;2.30;;
9420;SDS011;4749;51.398;5.466;2023-02-26T18:29:32;4.47;;;2.50;;
9420;SDS011;4749;51.398;5.466;2023-02-26T18:32:12;3.70;;;2.30;;
9420;SDS011;4749;51.398;5.466;2023-02-26T18:34:58;2.87;;;1.63;;
9420;SDS011;4749;51.398;5.466;2023-02-26T18:37:31;4.20;;;2.40;;
9420;SDS011;4749;51.398;5.466;2023-02-26T18:40:09;3.60;;;2.23;;
9420;SDS011;4749;51.398;5.466;2023-02-26T18:42:55;5.47;;;2.50;;
9420;SDS011;4749;51.398;5.466;2023-02-26T18:45:34;5.03;;;2.90;;
9420;SDS011;4749;51.398;5.466;2023-02-26T18:48:27;5.57;;;2.80;;
9420;SDS011;4749;51.398;5.466;2023-02-26T18:51:38;5.60;;;2.33;;
9420;SDS011;4749;51.398;5.466;2023-02-26T18:54:42;5.17;;;2.70;;
9420;SDS011;4749;51.398;5.466;2023-02-26T18:58:34;7.60;;;4.27;;
9420;SDS011;4749;51.398;5.466;2023-02-26T19:01:26;8.03;;;3.30;;
9420;SDS011;4749;51.398;5.466;2023-02-26T19:04:07;5.70;;;3.10;;
9420;SDS011;4749;51.398;5.466;2023-02-26T19:06:48;5.63;;;3.10;;
9420;SDS011;4749;51.398;5.466;2023-02-26T19:09:52;6.63;;;2.60;;
9420;SDS011;4749;51.398;5.466;2023-02-26T19:12:43;4.50;;;2.83;;
9420;SDS011;4749;51.398;5.466;2023-02-26T19:15:46;3.93;;;1.80;;